sensor_id;sensor_type;location;lat;lon;timestamp;pressure;altitude;pressure_sealevel;temperature
61189;BMP280;47054;39.716;2.904;2022-12-18T00:02:39;100944.94;;;18.95
61189;BMP280;47054;39.716;2.904;2022-12-18T00:05:24;100938.75;;;18.91
61189;BMP280;47054;39.716;2.904;2022-12-18T00:08:09;100955.69;;;18.95
61189;BMP280;47054;39.716;2.904;2022-12-18T00:10:54;100933.31;;;18.87
61189;BMP280;47054;39.716;2.904;2022-12-18T00:13:39;100947.97;;;18.93
61189;BMP280;47054;39.716;2.904;2022-12-18T00:16:26;100958.38;;;18.95
61189;BMP280;47054;39.716;2.904;2022-12-18T00:19:11;100960.28;;;18.94
61189;BMP280;47054;39.716;2.904;2022-12-18T00:21:55;100966.78;;;18.93
61189;BMP280;47054;39.716;2.904;2022-12-18T00:24:40;100953.31;;;18.90
61189;BMP280;47054;39.716;2.904;2022-12-18T00:27:25;100954.41;;;18.89
61189;BMP280;47054;39.716;2.904;2022-12-18T00:30:10;100961.41;;;18.93
61189;BMP280;47054;39.716;2.904;2022-12-18T00:32:55;100964.09;;;18.93
61189;BMP280;47054;39.716;2.904;2022-12-18T00:35:43;100954.81;;;18.87
61189;BMP280;47054;39.716;2.904;2022-12-18T00:38:29;100959.84;;;18.92
61189;BMP280;47054;39.716;2.904;2022-12-18T00:41:15;100953.72;;;18.92
61189;BMP280;47054;39.716;2.904;2022-12-18T00:44:22;100961.78;;;18.92
61189;BMP280;47054;39.716;2.904;2022-12-18T00:47:09;100964.38;;;18.88
61189;BMP280;47054;39.716;2.904;2022-12-18T00:49:53;100969.75;;;18.88
61189;BMP280;47054;39.716;2.904;2022-12-18T00:52:38;100970.50;;;18.85
61189;BMP280;47054;39.716;2.904;2022-12-18T00:55:23;100975.91;;;18.89
61189;BMP280;47054;39.716;2.904;2022-12-18T00:58:09;100987.13;;;18.91
61189;BMP280;47054;39.716;2.904;2022-12-18T01:00:54;100990.91;;;18.90
61189;BMP280;47054;39.716;2.904;2022-12-18T01:03:38;100993.09;;;18.84
61189;BMP280;47054;39.716;2.904;2022-12-18T01:06:23;100999.31;;;18.88
61189;BMP280;47054;39.716;2.904;2022-12-18T01:09:07;101011.31;;;18.91
61189;BMP280;47054;39.716;2.904;2022-12-18T01:11:54;101016.63;;;18.87
61189;BMP280;47054;39.716;2.904;2022-12-18T01:14:39;101010.84;;;18.89
61189;BMP280;47054;39.716;2.904;2022-12-18T01:17:24;101018.91;;;18.89
61189;BMP280;47054;39.716;2.904;2022-12-18T01:20:10;101001.81;;;18.77
61189;BMP280;47054;39.716;2.904;2022-12-18T01:22:56;101010.00;;;18.84
61189;BMP280;47054;39.716;2.904;2022-12-18T01:25:41;101016.53;;;18.83
61189;BMP280;47054;39.716;2.904;2022-12-18T01:28:28;101020.81;;;18.88
61189;BMP280;47054;39.716;2.904;2022-12-18T01:31:19;101018.13;;;18.88
61189;BMP280;47054;39.716;2.904;2022-12-18T01:34:05;101022.72;;;18.88
61189;BMP280;47054;39.716;2.904;2022-12-18T01:36:49;101024.28;;;18.89
61189;BMP280;47054;39.716;2.904;2022-12-18T01:39:37;101018.44;;;18.83
61189;BMP280;47054;39.716;2.904;2022-12-18T01:42:22;101022.00;;;18.87
61189;BMP280;47054;39.716;2.904;2022-12-18T01:48:04;101020.28;;;18.79
61189;BMP280;47054;39.716;2.904;2022-12-18T01:50:50;101029.19;;;18.83
61189;BMP280;47054;39.716;2.904;2022-12-18T01:53:36;101027.63;;;18.82
61189;BMP280;47054;39.716;2.904;2022-12-18T01:56:21;101041.13;;;18.86
61189;BMP280;47054;39.716;2.904;2022-12-18T01:59:09;101033.41;;;18.84
61189;BMP280;47054;39.716;2.904;2022-12-18T02:01:55;101026.84;;;18.81
61189;BMP280;47054;39.716;2.904;2022-12-18T02:04:41;101048.41;;;18.85
61189;BMP280;47054;39.716;2.904;2022-12-18T02:07:42;101034.19;;;18.84
61189;BMP280;47054;39.716;2.904;2022-12-18T02:20:19;101057.53;;;18.80
61189;BMP280;47054;39.716;2.904;2022-12-18T02:29:05;101056.72;;;18.76
61189;BMP280;47054;39.716;2.904;2022-12-18T02:31:57;101064.78;;;18.76
61189;BMP280;47054;39.716;2.904;2022-12-18T02:34:44;101064.00;;;18.76
61189;BMP280;47054;39.716;2.904;2022-12-18T02:37:34;101067.53;;;18.80
61189;BMP280;47054;39.716;2.904;2022-12-18T02:40:24;101062.47;;;18.78
61189;BMP280;47054;39.716;2.904;2022-12-18T02:43:11;101066.38;;;18.81
61189;BMP280;47054;39.716;2.904;2022-12-18T02:45:58;101061.72;;;18.78
61189;BMP280;47054;39.716;2.904;2022-12-18T02:48:47;101063.22;;;18.75
61189;BMP280;47054;39.716;2.904;2022-12-18T02:54:38;101069.44;;;18.79
61189;BMP280;47054;39.716;2.904;2022-12-18T03:04:16;101067.72;;;18.71
61189;BMP280;47054;39.716;2.904;2022-12-18T03:07:05;101068.91;;;18.74
61189;BMP280;47054;39.716;2.904;2022-12-18T03:09:53;101077.44;;;18.76
61189;BMP280;47054;39.716;2.904;2022-12-18T03:12:44;101069.63;;;18.71
61189;BMP280;47054;39.716;2.904;2022-12-18T03:15:35;101072.06;;;18.76
61189;BMP280;47054;39.716;2.904;2022-12-18T03:18:44;101067.72;;;18.71
61189;BMP280;47054;39.716;2.904;2022-12-18T03:21:39;101068.84;;;18.70
61189;BMP280;47054;39.716;2.904;2022-12-18T03:24:26;101077.75;;;18.74
61189;BMP280;47054;39.716;2.904;2022-12-18T03:27:15;101081.53;;;18.70
61189;BMP280;47054;39.716;2.904;2022-12-18T03:30:05;101096.56;;;18.74
61189;BMP280;47054;39.716;2.904;2022-12-18T03:33:05;101086.59;;;18.75
61189;BMP280;47054;39.716;2.904;2022-12-18T03:35:53;101077.31;;;18.69
61189;BMP280;47054;39.716;2.904;2022-12-18T03:38:38;101093.88;;;18.74
61189;BMP280;47054;39.716;2.904;2022-12-18T03:41:46;101094.66;;;18.75
61189;BMP280;47054;39.716;2.904;2022-12-18T03:48:00;101081.53;;;18.70
61189;BMP280;47054;39.716;2.904;2022-12-18T03:50:56;101087.31;;;18.72
61189;BMP280;47054;39.716;2.904;2022-12-18T03:53:45;101091.00;;;18.64
61189;BMP280;47054;39.716;2.904;2022-12-18T03:56:39;101088.22;;;18.60
61189;BMP280;47054;39.716;2.904;2022-12-18T03:59:27;101091.78;;;18.64
61189;BMP280;47054;39.716;2.904;2022-12-18T04:02:15;101091.34;;;18.62
61189;BMP280;47054;39.716;2.904;2022-12-18T04:05:03;101104.50;;;18.67
61189;BMP280;47054;39.716;2.904;2022-12-18T04:07:49;101087.81;;;18.58
61189;BMP280;47054;39.716;2.904;2022-12-18T04:10:36;101107.97;;;18.68
61189;BMP280;47054;39.716;2.904;2022-12-18T04:13:23;101112.63;;;18.71
61189;BMP280;47054;39.716;2.904;2022-12-18T04:16:08;101107.91;;;18.64
61189;BMP280;47054;39.716;2.904;2022-12-18T04:18:55;101113.28;;;18.64
61189;BMP280;47054;39.716;2.904;2022-12-18T04:21:42;101114.91;;;18.69
61189;BMP280;47054;39.716;2.904;2022-12-18T04:24:29;101120.28;;;18.69
61189;BMP280;47054;39.716;2.904;2022-12-18T04:27:26;101126.78;;;18.68
61189;BMP280;47054;39.716;2.904;2022-12-18T04:30:11;101135.63;;;18.68
61189;BMP280;47054;39.716;2.904;2022-12-18T04:32:56;101129.47;;;18.68
61189;BMP280;47054;39.716;2.904;2022-12-18T04:35:41;101122.09;;;18.65
61189;BMP280;47054;39.716;2.904;2022-12-18T04:38:26;101138.63;;;18.67
61189;BMP280;47054;39.716;2.904;2022-12-18T04:41:19;101126.59;;;18.61
61189;BMP280;47054;39.716;2.904;2022-12-18T04:44:06;101147.16;;;18.69
61189;BMP280;47054;39.716;2.904;2022-12-18T04:46:51;101142.03;;;18.64
61189;BMP280;47054;39.716;2.904;2022-12-18T04:49:36;101138.56;;;18.63
61189;BMP280;47054;39.716;2.904;2022-12-18T04:52:20;101143.50;;;18.61
61189;BMP280;47054;39.716;2.904;2022-12-18T04:55:05;101150.88;;;18.64
61189;BMP280;47054;39.716;2.904;2022-12-18T04:57:49;101149.31;;;18.63
61189;BMP280;47054;39.716;2.904;2022-12-18T05:00:35;101147.41;;;18.64
61189;BMP280;47054;39.716;2.904;2022-12-18T05:03:19;101140.03;;;18.61
61189;BMP280;47054;39.716;2.904;2022-12-18T05:06:05;101157.44;;;18.67
61189;BMP280;47054;39.716;2.904;2022-12-18T05:08:50;101151.31;;;18.66
61189;BMP280;47054;39.716;2.904;2022-12-18T05:11:36;101150.09;;;18.64
61189;BMP280;47054;39.716;2.904;2022-12-18T05:14:20;101152.78;;;18.64
61189;BMP280;47054;39.716;2.904;2022-12-18T05:17:05;101153.47;;;18.61
61189;BMP280;47054;39.716;2.904;2022-12-18T05:19:49;101163.53;;;18.64
61189;BMP280;47054;39.716;2.904;2022-12-18T05:22:34;101158.84;;;18.61
61189;BMP280;47054;39.716;2.904;2022-12-18T05:25:19;101164.69;;;18.63
61189;BMP280;47054;39.716;2.904;2022-12-18T05:28:04;101165.06;;;18.65
61189;BMP280;47054;39.716;2.904;2022-12-18T05:30:50;101158.16;;;18.64
61189;BMP280;47054;39.716;2.904;2022-12-18T05:33:35;101158.94;;;18.64
61189;BMP280;47054;39.716;2.904;2022-12-18T05:36:20;101165.78;;;18.62
61189;BMP280;47054;39.716;2.904;2022-12-18T05:39:04;101168.41;;;18.58
61189;BMP280;47054;39.716;2.904;2022-12-18T05:41:49;101159.88;;;18.56
61189;BMP280;47054;39.716;2.904;2022-12-18T05:44:33;101164.69;;;18.63
61189;BMP280;47054;39.716;2.904;2022-12-18T05:47:18;101174.63;;;18.62
61189;BMP280;47054;39.716;2.904;2022-12-18T05:50:03;101181.91;;;18.62
61189;BMP280;47054;39.716;2.904;2022-12-18T05:52:47;101184.13;;;18.60
61189;BMP280;47054;39.716;2.904;2022-12-18T05:55:37;101190.75;;;18.62
61189;BMP280;47054;39.716;2.904;2022-12-18T05:58:22;101184.13;;;18.60
61189;BMP280;47054;39.716;2.904;2022-12-18T06:03:59;101189.44;;;18.56
61189;BMP280;47054;39.716;2.904;2022-12-18T06:06:43;101196.84;;;18.59
61189;BMP280;47054;39.716;2.904;2022-12-18T06:09:29;101189.50;;;18.60
61189;BMP280;47054;39.716;2.904;2022-12-18T06:12:13;101196.06;;;18.59
61189;BMP280;47054;39.716;2.904;2022-12-18T06:14:57;101206.72;;;18.55
61189;BMP280;47054;39.716;2.904;2022-12-18T06:17:42;101209.81;;;18.57
61189;BMP280;47054;39.716;2.904;2022-12-18T06:20:26;101209.41;;;18.55
61189;BMP280;47054;39.716;2.904;2022-12-18T06:23:11;101218.66;;;18.58
61189;BMP280;47054;39.716;2.904;2022-12-18T06:25:56;101224.81;;;18.58
61189;BMP280;47054;39.716;2.904;2022-12-18T06:28:41;101218.66;;;18.58
61189;BMP280;47054;39.716;2.904;2022-12-18T06:31:26;101226.28;;;18.56
61189;BMP280;47054;39.716;2.904;2022-12-18T06:34:10;101225.53;;;18.55
61189;BMP280;47054;39.716;2.904;2022-12-18T06:36:55;101230.50;;;18.57
61189;BMP280;47054;39.716;2.904;2022-12-18T06:39:40;101238.56;;;18.57
61189;BMP280;47054;39.716;2.904;2022-12-18T06:42:24;101245.75;;;18.53
61189;BMP280;47054;39.716;2.904;2022-12-18T06:45:10;101245.69;;;18.49
61189;BMP280;47054;39.716;2.904;2022-12-18T06:47:55;101246.22;;;18.55
61189;BMP280;47054;39.716;2.904;2022-12-18T06:50:42;101250.75;;;18.51
61189;BMP280;47054;39.716;2.904;2022-12-18T06:53:27;101256.97;;;18.55
61189;BMP280;47054;39.716;2.904;2022-12-18T06:56:11;101269.63;;;18.54
61189;BMP280;47054;39.716;2.904;2022-12-18T06:58:57;101277.69;;;18.54
61189;BMP280;47054;39.716;2.904;2022-12-18T07:01:41;101276.88;;;18.54
61189;BMP280;47054;39.716;2.904;2022-12-18T07:04:29;101270.28;;;18.51
61189;BMP280;47054;39.716;2.904;2022-12-18T07:07:14;101282.63;;;18.52
61189;BMP280;47054;39.716;2.904;2022-12-18T07:09:59;101284.44;;;18.48
61189;BMP280;47054;39.716;2.904;2022-12-18T07:12:44;101275.22;;;18.49
61189;BMP280;47054;39.716;2.904;2022-12-18T07:15:28;101280.59;;;18.49
61189;BMP280;47054;39.716;2.904;2022-12-18T07:18:12;101298.72;;;18.52
61189;BMP280;47054;39.716;2.904;2022-12-18T07:20:57;101311.38;;;18.52
61189;BMP280;47054;39.716;2.904;2022-12-18T07:23:42;101314.06;;;18.52
61189;BMP280;47054;39.716;2.904;2022-12-18T07:26:28;101311.38;;;18.52
61189;BMP280;47054;39.716;2.904;2022-12-18T07:29:13;101310.09;;;18.46
61189;BMP280;47054;39.716;2.904;2022-12-18T07:31:58;101315.53;;;18.49
61189;BMP280;47054;39.716;2.904;2022-12-18T07:34:43;101325.94;;;18.51
61189;BMP280;47054;39.716;2.904;2022-12-18T07:37:27;101317.25;;;18.42
61189;BMP280;47054;39.716;2.904;2022-12-18T07:40:12;101324.72;;;18.48
61189;BMP280;47054;39.716;2.904;2022-12-18T07:42:57;101327.41;;;18.48
61189;BMP280;47054;39.716;2.904;2022-12-18T07:45:43;101322.28;;;18.43
61189;BMP280;47054;39.716;2.904;2022-12-18T07:48:28;101321.94;;;18.45
61189;BMP280;47054;39.716;2.904;2022-12-18T07:51:13;101331.63;;;18.49
61189;BMP280;47054;39.716;2.904;2022-12-18T07:53:58;101337.38;;;18.48
61189;BMP280;47054;39.716;2.904;2022-12-18T07:56:42;101334.69;;;18.48
61189;BMP280;47054;39.716;2.904;2022-12-18T07:59:27;101338.75;;;18.42
61189;BMP280;47054;39.716;2.904;2022-12-18T08:02:11;101341.88;;;18.44
61189;BMP280;47054;39.716;2.904;2022-12-18T08:04:56;101345.75;;;18.46
61189;BMP280;47054;39.716;2.904;2022-12-18T08:07:40;101348.03;;;18.44
61189;BMP280;47054;39.716;2.904;2022-12-18T08:10:25;101352.69;;;18.47
61189;BMP280;47054;39.716;2.904;2022-12-18T08:13:09;101339.88;;;18.41
61189;BMP280;47054;39.716;2.904;2022-12-18T08:16:05;101343.06;;;18.46
61189;BMP280;47054;39.716;2.904;2022-12-18T08:18:52;101356.50;;;18.46
61189;BMP280;47054;39.716;2.904;2022-12-18T08:21:37;101357.66;;;18.45
61189;BMP280;47054;39.716;2.904;2022-12-18T08:24:25;101358.69;;;18.41
61189;BMP280;47054;39.716;2.904;2022-12-18T08:27:10;101367.94;;;18.43
61189;BMP280;47054;39.716;2.904;2022-12-18T08:29:54;101368.72;;;18.44
61189;BMP280;47054;39.716;2.904;2022-12-18T08:32:39;101366.81;;;18.44
61189;BMP280;47054;39.716;2.904;2022-12-18T08:35:24;101368.28;;;18.42
61189;BMP280;47054;39.716;2.904;2022-12-18T08:38:08;101364.38;;;18.39
61189;BMP280;47054;39.716;2.904;2022-12-18T08:41:00;101370.22;;;18.41
61189;BMP280;47054;39.716;2.904;2022-12-18T08:43:45;101376.69;;;18.40
61189;BMP280;47054;39.716;2.904;2022-12-18T08:46:48;101370.44;;;18.36
61189;BMP280;47054;39.716;2.904;2022-12-18T08:49:34;101378.59;;;18.40
61189;BMP280;47054;39.716;2.904;2022-12-18T08:52:19;101377.28;;;18.34
61189;BMP280;47054;39.716;2.904;2022-12-18T08:55:04;101383.66;;;18.41
61189;BMP280;47054;39.716;2.904;2022-12-18T08:57:49;101385.53;;;18.41
61189;BMP280;47054;39.716;2.904;2022-12-18T09:00:34;101389.00;;;18.41
61189;BMP280;47054;39.716;2.904;2022-12-18T09:03:18;101389.34;;;18.40
61189;BMP280;47054;39.716;2.904;2022-12-18T09:06:04;101403.56;;;18.40
61189;BMP280;47054;39.716;2.904;2022-12-18T09:08:49;101403.56;;;18.40
61189;BMP280;47054;39.716;2.904;2022-12-18T09:11:33;101403.47;;;18.37
61189;BMP280;47054;39.716;2.904;2022-12-18T09:14:18;101413.84;;;18.38
61189;BMP280;47054;39.716;2.904;2022-12-18T09:17:03;101410.81;;;18.40
61189;BMP280;47054;39.716;2.904;2022-12-18T09:19:48;101412.72;;;18.39
61189;BMP280;47054;39.716;2.904;2022-12-18T09:22:33;101418.88;;;18.40
61189;BMP280;47054;39.716;2.904;2022-12-18T09:25:18;101409.59;;;18.37
61189;BMP280;47054;39.716;2.904;2022-12-18T09:28:13;101411.97;;;18.39
61189;BMP280;47054;39.716;2.904;2022-12-18T09:31:02;101414.66;;;18.39
61189;BMP280;47054;39.716;2.904;2022-12-18T09:33:47;101409.75;;;18.29
61189;BMP280;47054;39.716;2.904;2022-12-18T09:36:32;101429.09;;;18.34
61189;BMP280;47054;39.716;2.904;2022-12-18T09:39:17;101418.66;;;18.33
61189;BMP280;47054;39.716;2.904;2022-12-18T09:42:02;101422.69;;;18.39
61189;BMP280;47054;39.716;2.904;2022-12-18T09:44:52;101426.94;;;18.40
61189;BMP280;47054;39.716;2.904;2022-12-18T09:47:39;101426.06;;;18.36
61189;BMP280;47054;39.716;2.904;2022-12-18T09:50:28;101430.19;;;18.33
61189;BMP280;47054;39.716;2.904;2022-12-18T09:53:19;101437.25;;;18.38
61189;BMP280;47054;39.716;2.904;2022-12-18T09:56:05;101438.38;;;18.37
61189;BMP280;47054;39.716;2.904;2022-12-18T09:58:59;101433.00;;;18.37
61189;BMP280;47054;39.716;2.904;2022-12-18T10:01:45;101431.78;;;18.34
61189;BMP280;47054;39.716;2.904;2022-12-18T10:04:31;101428.66;;;18.32
61189;BMP280;47054;39.716;2.904;2022-12-18T10:07:27;101435.69;;;18.37
61189;BMP280;47054;39.716;2.904;2022-12-18T10:10:23;101430.66;;;18.35
61189;BMP280;47054;39.716;2.904;2022-12-18T10:25:26;101457.84;;;18.34
61189;BMP280;47054;39.716;2.904;2022-12-18T10:28:14;101442.84;;;18.33
61189;BMP280;47054;39.716;2.904;2022-12-18T10:30:59;101435.84;;;18.28
61189;BMP280;47054;39.716;2.904;2022-12-18T10:33:44;101441.72;;;18.34
61189;BMP280;47054;39.716;2.904;2022-12-18T10:36:31;101432.09;;;18.33
61189;BMP280;47054;39.716;2.904;2022-12-18T10:39:21;101432.09;;;18.33
61189;BMP280;47054;39.716;2.904;2022-12-18T10:42:16;101439.03;;;18.34
61189;BMP280;47054;39.716;2.904;2022-12-18T10:45:15;101429.41;;;18.33
61189;BMP280;47054;39.716;2.904;2022-12-18T10:48:00;101439.41;;;18.32
61189;BMP280;47054;39.716;2.904;2022-12-18T10:50:49;101430.47;;;18.28
61189;BMP280;47054;39.716;2.904;2022-12-18T10:53:35;101433.59;;;18.30
61189;BMP280;47054;39.716;2.904;2022-12-18T10:56:20;101443.63;;;18.33
61189;BMP280;47054;39.716;2.904;2022-12-18T10:59:08;101451.38;;;18.35
61189;BMP280;47054;39.716;2.904;2022-12-18T11:01:57;101432.47;;;18.31
61189;BMP280;47054;39.716;2.904;2022-12-18T11:04:51;101434.03;;;18.32
61189;BMP280;47054;39.716;2.904;2022-12-18T11:07:50;101434.78;;;18.33
61189;BMP280;47054;39.716;2.904;2022-12-18T11:10:37;101447.44;;;18.32
61189;BMP280;47054;39.716;2.904;2022-12-18T11:13:29;101446.31;;;18.33
61189;BMP280;47054;39.716;2.904;2022-12-18T11:16:20;101431.59;;;18.27
61189;BMP280;47054;39.716;2.904;2022-12-18T11:22:30;101427.03;;;18.28
61189;BMP280;47054;39.716;2.904;2022-12-18T11:28:03;101416.16;;;18.24
61189;BMP280;47054;39.716;2.904;2022-12-18T11:30:48;101419.38;;;18.30
61189;BMP280;47054;39.716;2.904;2022-12-18T11:33:33;101411.22;;;18.26
61189;BMP280;47054;39.716;2.904;2022-12-18T11:36:18;101419.06;;;18.31
61189;BMP280;47054;39.716;2.904;2022-12-18T11:40:01;101420.16;;;18.30
61189;BMP280;47054;39.716;2.904;2022-12-18T11:43:05;101414.78;;;18.30
61189;BMP280;47054;39.716;2.904;2022-12-18T11:45:58;101417.78;;;18.29
61189;BMP280;47054;39.716;2.904;2022-12-18T11:48:58;101412.44;;;18.29
61189;BMP280;47054;39.716;2.904;2022-12-18T11:54:33;101413.22;;;18.29
61189;BMP280;47054;39.716;2.904;2022-12-18T12:00:21;101404.75;;;18.27
61189;BMP280;47054;39.716;2.904;2022-12-18T12:11:54;101397.88;;;18.30
61189;BMP280;47054;39.716;2.904;2022-12-18T12:17:45;101397.28;;;18.21
61189;BMP280;47054;39.716;2.904;2022-12-18T12:39:01;101380.91;;;18.26
61189;BMP280;47054;39.716;2.904;2022-12-18T12:41:38;101382.72;;;18.22
61189;BMP280;47054;39.716;2.904;2022-12-18T12:45:03;101394.00;;;18.27
61189;BMP280;47054;39.716;2.904;2022-12-18T12:47:50;101380.81;;;18.22
61189;BMP280;47054;39.716;2.904;2022-12-18T12:50:36;101392.88;;;18.28
61189;BMP280;47054;39.716;2.904;2022-12-18T12:53:35;101385.16;;;18.27
61189;BMP280;47054;39.716;2.904;2022-12-18T12:56:21;101380.81;;;18.22
61189;BMP280;47054;39.716;2.904;2022-12-18T13:02:42;101381.78;;;18.30
61189;BMP280;47054;39.716;2.904;2022-12-18T13:11:48;101358.19;;;18.23
61189;BMP280;47054;39.716;2.904;2022-12-18T13:14:51;101357.00;;;18.21
61189;BMP280;47054;39.716;2.904;2022-12-18T13:17:35;101361.00;;;18.27
61189;BMP280;47054;39.716;2.904;2022-12-18T13:20:19;101357.44;;;18.23
61189;BMP280;47054;39.716;2.904;2022-12-18T13:28:55;101364.09;;;18.29
61189;BMP280;47054;39.716;2.904;2022-12-18T13:34:29;101360.28;;;18.30
61189;BMP280;47054;39.716;2.904;2022-12-18T13:37:42;101362.97;;;18.30
61189;BMP280;47054;39.716;2.904;2022-12-18T13:40:53;101352.59;;;18.28
61189;BMP280;47054;39.716;2.904;2022-12-18T13:43:43;101354.84;;;18.26
61189;BMP280;47054;39.716;2.904;2022-12-18T13:46:50;101349.91;;;18.28
61189;BMP280;47054;39.716;2.904;2022-12-18T13:49:40;101347.22;;;18.28
61189;BMP280;47054;39.716;2.904;2022-12-18T13:52:27;101346.00;;;18.26
61189;BMP280;47054;39.716;2.904;2022-12-18T13:55:18;101356.81;;;18.29
61189;BMP280;47054;39.716;2.904;2022-12-18T13:58:04;101357.97;;;18.28
61189;BMP280;47054;39.716;2.904;2022-12-18T14:00:49;101344.03;;;18.23
61189;BMP280;47054;39.716;2.904;2022-12-18T14:03:34;101348.69;;;18.26
61189;BMP280;47054;39.716;2.904;2022-12-18T14:06:18;101362.19;;;18.29
61189;BMP280;47054;39.716;2.904;2022-12-18T14:09:04;101359.34;;;18.22
61189;BMP280;47054;39.716;2.904;2022-12-18T14:11:49;101365.34;;;18.31
61189;BMP280;47054;39.716;2.904;2022-12-18T14:14:34;101370.63;;;18.28
61189;BMP280;47054;39.716;2.904;2022-12-18T14:17:20;101378.31;;;18.29
61189;BMP280;47054;39.716;2.904;2022-12-18T14:20:13;101367.03;;;18.24
61189;BMP280;47054;39.716;2.904;2022-12-18T14:23:00;101384.16;;;18.31
61189;BMP280;47054;39.716;2.904;2022-12-18T14:25:45;101381.47;;;18.31
61189;BMP280;47054;39.716;2.904;2022-12-18T14:28:30;101377.09;;;18.27
61189;BMP280;47054;39.716;2.904;2022-12-18T14:31:23;101364.47;;;18.27
61189;BMP280;47054;39.716;2.904;2022-12-18T14:34:15;101376.75;;;18.28
61189;BMP280;47054;39.716;2.904;2022-12-18T14:37:00;101386.03;;;18.31
61189;BMP280;47054;39.716;2.904;2022-12-18T14:40:01;101388.38;;;18.32
61189;BMP280;47054;39.716;2.904;2022-12-18T14:42:46;101389.84;;;18.30
61189;BMP280;47054;39.716;2.904;2022-12-18T14:51:22;101396.44;;;18.32
61189;BMP280;47054;39.716;2.904;2022-12-18T14:54:16;101394.50;;;18.33
61189;BMP280;47054;39.716;2.904;2022-12-18T14:57:03;101394.09;;;18.31
61189;BMP280;47054;39.716;2.904;2022-12-18T14:59:48;101398.69;;;18.30
61189;BMP280;47054;39.716;2.904;2022-12-18T15:02:34;101397.97;;;18.33
61189;BMP280;47054;39.716;2.904;2022-12-18T15:05:25;101403.34;;;18.33
61189;BMP280;47054;39.716;2.904;2022-12-18T15:08:28;101406.03;;;18.33
61189;BMP280;47054;39.716;2.904;2022-12-18T15:14:42;101407.44;;;18.27
61189;BMP280;47054;39.716;2.904;2022-12-18T15:17:27;101398.47;;;18.23
61189;BMP280;47054;39.716;2.904;2022-12-18T15:20:13;101397.72;;;18.23
61189;BMP280;47054;39.716;2.904;2022-12-18T15:22:58;101410.53;;;18.29
61189;BMP280;47054;39.716;2.904;2022-12-18T15:25:42;101405.94;;;18.30
61189;BMP280;47054;39.716;2.904;2022-12-18T15:28:37;101407.16;;;18.32
61189;BMP280;47054;39.716;2.904;2022-12-18T15:31:30;101411.78;;;18.32
61189;BMP280;47054;39.716;2.904;2022-12-18T15:34:21;101405.16;;;18.29
61189;BMP280;47054;39.716;2.904;2022-12-18T15:37:07;101404.84;;;18.31
61189;BMP280;47054;39.716;2.904;2022-12-18T15:39:52;101415.22;;;18.32
61189;BMP280;47054;39.716;2.904;2022-12-18T15:42:36;101415.22;;;18.32
61189;BMP280;47054;39.716;2.904;2022-12-18T15:45:39;101409.41;;;18.30
61189;BMP280;47054;39.716;2.904;2022-12-18T15:48:24;101422.16;;;18.33
61189;BMP280;47054;39.716;2.904;2022-12-18T15:51:29;101423.72;;;18.34
61189;BMP280;47054;39.716;2.904;2022-12-18T15:54:16;101418.25;;;18.31
61189;BMP280;47054;39.716;2.904;2022-12-18T15:57:00;101425.22;;;18.32
61189;BMP280;47054;39.716;2.904;2022-12-18T16:00:04;101421.34;;;18.33
61189;BMP280;47054;39.716;2.904;2022-12-18T16:02:49;101429.41;;;18.33
61189;BMP280;47054;39.716;2.904;2022-12-18T16:05:34;101426.31;;;18.31
61189;BMP280;47054;39.716;2.904;2022-12-18T16:08:19;101429.78;;;18.31
61189;BMP280;47054;39.716;2.904;2022-12-18T16:11:03;101429.41;;;18.33
61189;BMP280;47054;39.716;2.904;2022-12-18T16:13:48;101434.13;;;18.36
61189;BMP280;47054;39.716;2.904;2022-12-18T16:16:33;101429.09;;;18.34
61189;BMP280;47054;39.716;2.904;2022-12-18T16:19:18;101437.94;;;18.35
61189;BMP280;47054;39.716;2.904;2022-12-18T16:22:03;101431.78;;;18.34
61189;BMP280;47054;39.716;2.904;2022-12-18T16:24:49;101437.16;;;18.34
61189;BMP280;47054;39.716;2.904;2022-12-18T16:27:34;101444.09;;;18.35
61189;BMP280;47054;39.716;2.904;2022-12-18T16:30:23;101441.06;;;18.37
61189;BMP280;47054;39.716;2.904;2022-12-18T16:33:11;101432.88;;;18.33
61189;BMP280;47054;39.716;2.904;2022-12-18T16:35:56;101443.75;;;18.37
61189;BMP280;47054;39.716;2.904;2022-12-18T16:38:41;101429.78;;;18.31
61189;BMP280;47054;39.716;2.904;2022-12-18T16:41:25;101442.53;;;18.34
61189;BMP280;47054;39.716;2.904;2022-12-18T16:44:16;101438.25;;;18.33
61189;BMP280;47054;39.716;2.904;2022-12-18T16:47:01;101440.63;;;18.35
61189;BMP280;47054;39.716;2.904;2022-12-18T16:49:46;101448.34;;;18.36
61189;BMP280;47054;39.716;2.904;2022-12-18T16:52:33;101446.44;;;18.37
61189;BMP280;47054;39.716;2.904;2022-12-18T16:55:19;101444.41;;;18.34
61189;BMP280;47054;39.716;2.904;2022-12-18T16:58:03;101438.63;;;18.32
61189;BMP280;47054;39.716;2.904;2022-12-18T17:00:48;101440.16;;;18.33
61189;BMP280;47054;39.716;2.904;2022-12-18T17:03:32;101442.84;;;18.33
61189;BMP280;47054;39.716;2.904;2022-12-18T17:06:19;101438.94;;;18.30
61189;BMP280;47054;39.716;2.904;2022-12-18T17:09:06;101452.25;;;18.39
61189;BMP280;47054;39.716;2.904;2022-12-18T17:11:53;101460.31;;;18.39
61189;BMP280;47054;39.716;2.904;2022-12-18T17:14:38;101455.59;;;18.36
61189;BMP280;47054;39.716;2.904;2022-12-18T17:17:22;101453.34;;;18.38
61189;BMP280;47054;39.716;2.904;2022-12-18T17:20:09;101464.88;;;18.38
61189;BMP280;47054;39.716;2.904;2022-12-18T17:22:53;101464.88;;;18.38
61189;BMP280;47054;39.716;2.904;2022-12-18T17:25:41;101468.78;;;18.41
61189;BMP280;47054;39.716;2.904;2022-12-18T17:28:26;101468.34;;;18.39
61189;BMP280;47054;39.716;2.904;2022-12-18T17:31:19;101474.97;;;18.41
61189;BMP280;47054;39.716;2.904;2022-12-18T17:34:06;101472.06;;;18.34
61189;BMP280;47054;39.716;2.904;2022-12-18T17:36:53;101469.38;;;18.34
61189;BMP280;47054;39.716;2.904;2022-12-18T17:39:38;101475.53;;;18.35
61189;BMP280;47054;39.716;2.904;2022-12-18T17:42:23;101469.38;;;18.34
61189;BMP280;47054;39.716;2.904;2022-12-18T17:45:09;101472.84;;;18.35
61189;BMP280;47054;39.716;2.904;2022-12-18T17:47:53;101479.84;;;18.39
61189;BMP280;47054;39.716;2.904;2022-12-18T17:50:39;101483.25;;;18.36